Baltica — 9HA2607 — position and weather

sailwx.info

Track history (hours):
 
Tides and Currents Weather Stations Pressure Air Temp Water Temp Dewpoint Dewpoint Depression Visibility Wind Speed Wind Dir Waves Ship Positions

Baltica

Last reported at 2014-Nov-24 18:34 UTC. Time now 2014-Nov-26 17:32 UTC.
Position N 57°26' E 017°46'.

Length 157 m; draft 7.2 m.

Type: Ship (hazmat cat A). MMSI: 215013000.

Date/timePositionNaut miles runAvg speedWind from/ knotsBaromVisibWave heightAir tempDewpointWater temp
2014-Nov-24 18:34N 57°26' E 017°46'1616.0
2014-Nov-24 17:32N 57°10' E 017°36'11814.8
2014-Nov-24 09:33N 55°37' E 015°23'1615.7
2014-Nov-24 08:34N 55°30' E 014°59'1616.1
2014-Nov-24 07:34N 55°21' E 014°35'1616.3
2014-Nov-24 06:34N 55°09' E 014°17'7715.2
2014-Nov-24 01:30N 54°33' E 012°19'1515.5
2014-Nov-24 00:33N 54°21' E 012°03'2016.3
2014-Nov-23 23:21N 54°12' E 011°33'1417.0
2014-Nov-23 22:33N 54°06' E 011°13'2 0.1
2014-Nov-22 02:28N 54°09' E 011°12'1211.9
2014-Nov-22 01:28N 54°15' E 011°29'1112.4
2014-Nov-22 00:33N 54°21' E 011°46'1212.1
2014-Nov-21 23:33N 54°26' E 012°05'8511.5
2014-Nov-21 16:11N 55°10' E 014°11'1112.0
2014-Nov-21 15:14N 55°19' E 014°23'812.0
2014-Nov-21 14:33N 55°25' E 014°33'1211.9
2014-Nov-21 13:33N 55°31' E 014°51'36312.1
2014-Nov-20 07:33N 59°36' E 023°10'1312.6
2014-Nov-20 06:33N 59°39' E 023°34'2613.0
2014-Nov-20 04:34N 59°46' E 024°23'3113.2
2014-Nov-20 02:10N 59°53' E 025°24'912.9
2014-Nov-20 01:27N 59°55' E 025°42'1412.8
2014-Nov-20 00:20N 60°00' E 026°09'1012.7
2014-Nov-19 23:34N 60°09' E 026°19'1211.7
2014-Nov-19 22:33N 60°18' E 026°33'1515.4
2014-Nov-19 21:34N 60°27' E 026°58'2 1.9
2014-Nov-19 20:32N 60°29' E 026°57'0 0.0
2014-Nov-19 19:32N 60°29' E 026°57'0 0.0
2014-Nov-19 18:32N 60°29' E 026°57'0 0.0
2014-Nov-19 17:26N 60°29' E 026°57'0 0.0
2014-Nov-19 16:32N 60°29' E 026°57'0 0.0
2014-Nov-19 15:32N 60°29' E 026°57'0 0.0
2014-Nov-19 14:29N 60°29' E 026°57'0 0.0
2014-Nov-19 13:32N 60°29' E 026°57'0 0.0
2014-Nov-19 12:32N 60°29' E 026°57'0 0.0
2014-Nov-19 11:32N 60°29' E 026°57'0 0.0
2014-Nov-19 10:32N 60°29' E 026°57'0 0.0
2014-Nov-19 09:32N 60°29' E 026°57'0 0.0
2014-Nov-19 08:32N 60°29' E 026°57'0 0.0
2014-Nov-19 07:32N 60°29' E 026°57'0 0.0
2014-Nov-19 06:32N 60°29' E 026°57'0 0.0
2014-Nov-19 05:32N 60°29' E 026°57'0 0.0
2014-Nov-19 04:32N 60°29' E 026°57'0 0.1
2014-Nov-19 03:33N 60°29' E 026°57'1010.2
2014-Nov-19 02:33N 60°20' E 027°07'9612.0
2014-Nov-18 18:34N 59°53' E 030°11'1 0.1
2014-Nov-18 04:33N 59°54' E 030°13'9413.2
2014-Nov-17 21:24N 59°58' E 027°05'1416.8
2014-Nov-17 20:34N 59°59' E 026°37'4313.8
2014-Nov-17 17:24N 60°08' E 025°12'5 5.3
2014-Nov-17 16:31N 60°13' E 025°12'0 0.0
2014-Nov-17 15:32N 60°13' E 025°12'0 0.0
2014-Nov-17 14:31N 60°13' E 025°12'0 0.0
2014-Nov-17 13:31N 60°13' E 025°12'0 0.0
2014-Nov-17 12:32N 60°13' E 025°12'0 0.0
2014-Nov-17 11:31N 60°13' E 025°12'0 0.0
2014-Nov-17 10:32N 60°13' E 025°12'0 0.0
2014-Nov-17 09:32N 60°13' E 025°12'7 7.3
2014-Nov-17 08:33N 60°06' E 025°11'2914.7
2014-Nov-17 06:33N 59°45' E 024°30'1815.4
2014-Nov-17 05:23N 59°40' E 023°56'1315.6
2014-Nov-17 04:33N 59°36' E 023°31'27816.0
2014-Nov-16 11:11N 55°30' E 019°29'1116.0
2014-Nov-16 10:29N 55°19' E 019°22'1516.4
2014-Nov-16 09:33N 55°05' E 019°13'1717.1
2014-Nov-16 08:33N 54°49' E 019°03'1717.2
2014-Nov-16 07:33N 54°33' E 018°51'1111.0
2014-Nov-16 06:33N 54°32' E 018°32'0 0.4
2014-Nov-16 05:32N 54°32' E 018°31'0 0.0
2014-Nov-16 04:32N 54°32' E 018°31'0 0.0
2014-Nov-16 03:32N 54°32' E 018°31'0 0.0
2014-Nov-16 02:32N 54°32' E 018°31'0 0.0
2014-Nov-16 01:32N 54°32' E 018°31'0 0.0
2014-Nov-16 00:32N 54°32' E 018°31'0 0.0
2014-Nov-15 23:32N 54°32' E 018°31'0 0.0
2014-Nov-15 22:32N 54°32' E 018°31'0 0.0
2014-Nov-15 21:33N 54°32' E 018°31'8 7.9
2014-Nov-15 20:33N 54°32' E 018°45'1414.2
2014-Nov-15 19:33N 54°44' E 018°58'1615.6
2014-Nov-15 18:34N 54°59' E 019°05'30415.7
2014-Nov-14 23:11N 59°35' E 023°04'1116.8
2014-Nov-14 22:33N 59°38' E 023°24'2216.9
2014-Nov-14 21:15N 59°44' E 024°06'1216.5
2014-Nov-14 20:32N 59°48' E 024°28'  
Track history (hours):
 
Tides and Currents Weather Stations Pressure Air Temp Water Temp Dewpoint Dewpoint Depression Visibility Wind Speed Wind Dir Waves Ship Positions

Baltica

Last reported at 2014-Nov-24 18:34 UTC. Time now 2014-Nov-26 17:32 UTC.
Position N 57°26' E 017°46'.

Length 157 m; draft 7.2 m.

Type: Ship (hazmat cat A). MMSI: 215013000.

Date/timePositionNaut miles runAvg speedWind from/ knotsBaromVisibWave heightAir tempDewpointWater temp
2014-Nov-24 18:34N 57°26' E 017°46'1616.0
2014-Nov-24 17:32N 57°10' E 017°36'11814.8
2014-Nov-24 09:33N 55°37' E 015°23'1615.7
2014-Nov-24 08:34N 55°30' E 014°59'1616.1
2014-Nov-24 07:34N 55°21' E 014°35'1616.3
2014-Nov-24 06:34N 55°09' E 014°17'7715.2
2014-Nov-24 01:30N 54°33' E 012°19'1515.5
2014-Nov-24 00:33N 54°21' E 012°03'2016.3
2014-Nov-23 23:21N 54°12' E 011°33'1417.0
2014-Nov-23 22:33N 54°06' E 011°13'2 0.1
2014-Nov-22 02:28N 54°09' E 011°12'1211.9
2014-Nov-22 01:28N 54°15' E 011°29'1112.4
2014-Nov-22 00:33N 54°21' E 011°46'1212.1
2014-Nov-21 23:33N 54°26' E 012°05'8511.5
2014-Nov-21 16:11N 55°10' E 014°11'1112.0
2014-Nov-21 15:14N 55°19' E 014°23'812.0
2014-Nov-21 14:33N 55°25' E 014°33'1211.9
2014-Nov-21 13:33N 55°31' E 014°51'36312.1
2014-Nov-20 07:33N 59°36' E 023°10'1312.6
2014-Nov-20 06:33N 59°39' E 023°34'2613.0
2014-Nov-20 04:34N 59°46' E 024°23'3113.2
2014-Nov-20 02:10N 59°53' E 025°24'912.9
2014-Nov-20 01:27N 59°55' E 025°42'1412.8
2014-Nov-20 00:20N 60°00' E 026°09'1012.7
2014-Nov-19 23:34N 60°09' E 026°19'1211.7
2014-Nov-19 22:33N 60°18' E 026°33'1515.4
2014-Nov-19 21:34N 60°27' E 026°58'2 1.9
2014-Nov-19 20:32N 60°29' E 026°57'0 0.0
2014-Nov-19 19:32N 60°29' E 026°57'0 0.0
2014-Nov-19 18:32N 60°29' E 026°57'0 0.0
2014-Nov-19 17:26N 60°29' E 026°57'0 0.0
2014-Nov-19 16:32N 60°29' E 026°57'0 0.0
2014-Nov-19 15:32N 60°29' E 026°57'0 0.0
2014-Nov-19 14:29N 60°29' E 026°57'0 0.0
2014-Nov-19 13:32N 60°29' E 026°57'0 0.0
2014-Nov-19 12:32N 60°29' E 026°57'0 0.0
2014-Nov-19 11:32N 60°29' E 026°57'0 0.0
2014-Nov-19 10:32N 60°29' E 026°57'0 0.0
2014-Nov-19 09:32N 60°29' E 026°57'0 0.0
2014-Nov-19 08:32N 60°29' E 026°57'0 0.0
2014-Nov-19 07:32N 60°29' E 026°57'0 0.0
2014-Nov-19 06:32N 60°29' E 026°57'0 0.0
2014-Nov-19 05:32N 60°29' E 026°57'0 0.0
2014-Nov-19 04:32N 60°29' E 026°57'0 0.1
2014-Nov-19 03:33N 60°29' E 026°57'1010.2
2014-Nov-19 02:33N 60°20' E 027°07'9612.0
2014-Nov-18 18:34N 59°53' E 030°11'1 0.1
2014-Nov-18 04:33N 59°54' E 030°13'9413.2
2014-Nov-17 21:24N 59°58' E 027°05'1416.8
2014-Nov-17 20:34N 59°59' E 026°37'4313.8
2014-Nov-17 17:24N 60°08' E 025°12'5 5.3
2014-Nov-17 16:31N 60°13' E 025°12'0 0.0
2014-Nov-17 15:32N 60°13' E 025°12'0 0.0
2014-Nov-17 14:31N 60°13' E 025°12'0 0.0
2014-Nov-17 13:31N 60°13' E 025°12'0 0.0
2014-Nov-17 12:32N 60°13' E 025°12'0 0.0
2014-Nov-17 11:31N 60°13' E 025°12'0 0.0
2014-Nov-17 10:32N 60°13' E 025°12'0 0.0
2014-Nov-17 09:32N 60°13' E 025°12'7 7.3
2014-Nov-17 08:33N 60°06' E 025°11'2914.7
2014-Nov-17 06:33N 59°45' E 024°30'1815.4
2014-Nov-17 05:23N 59°40' E 023°56'1315.6
2014-Nov-17 04:33N 59°36' E 023°31'27816.0
2014-Nov-16 11:11N 55°30' E 019°29'1116.0
2014-Nov-16 10:29N 55°19' E 019°22'1516.4
2014-Nov-16 09:33N 55°05' E 019°13'1717.1
2014-Nov-16 08:33N 54°49' E 019°03'1717.2
2014-Nov-16 07:33N 54°33' E 018°51'1111.0
2014-Nov-16 06:33N 54°32' E 018°32'0 0.4
2014-Nov-16 05:32N 54°32' E 018°31'0 0.0
2014-Nov-16 04:32N 54°32' E 018°31'0 0.0
2014-Nov-16 03:32N 54°32' E 018°31'0 0.0
2014-Nov-16 02:32N 54°32' E 018°31'0 0.0
2014-Nov-16 01:32N 54°32' E 018°31'0 0.0
2014-Nov-16 00:32N 54°32' E 018°31'0 0.0
2014-Nov-15 23:32N 54°32' E 018°31'0 0.0
2014-Nov-15 22:32N 54°32' E 018°31'0 0.0
2014-Nov-15 21:33N 54°32' E 018°31'8 7.9
2014-Nov-15 20:33N 54°32' E 018°45'1414.2
2014-Nov-15 19:33N 54°44' E 018°58'1615.6
2014-Nov-15 18:34N 54°59' E 019°05'30415.7
2014-Nov-14 23:11N 59°35' E 023°04'1116.8
2014-Nov-14 22:33N 59°38' E 023°24'2216.9
2014-Nov-14 21:15N 59°44' E 024°06'1216.5
2014-Nov-14 20:32N 59°48' E 024°28'  

Dump ship's entire track history